Time;durP1;ratioP1;P1;durP2;ratioP2;P2;SDS_P1;SDS_P2;PMS_P1;PMS_P2;Temp;Humidity;BMP_temperature;BMP_pressure;BME280_temperature;BME280_humidity;BME280_pressure;Samples;Min_cycle;Max_cycle;Signal;HPM_P1;HPM_P2
2022/09/24 00:01:26;;;;;;;7.17;3.05;;;;;;;11.66;73.96;150584.39;1780308;80;21054;-49
2022/09/24 00:03:55;;;;;;;4.50;3.30;;;;;;;11.63;74.17;150576.61;1775615;80;21098;-49
2022/09/24 00:06:23;;;;;;;6.25;3.12;;;;;;;11.65;74.11;150581.80;1781315;80;21054;-49
2022/09/24 00:08:55;;;;;;;5.78;3.58;;;;;;;11.68;74.24;150588.25;1770941;80;21052;-48
2022/09/24 00:11:24;;;;;;;5.05;3.55;;;;;;;11.70;74.01;150593.45;1780849;80;21194;-50
2022/09/24 00:13:50;;;;;;;4.85;3.22;;;;;;;11.67;74.17;150586.98;1780284;80;21032;-50
2022/09/24 00:16:20;;;;;;;5.15;3.42;;;;;;;11.66;74.06;150584.39;1778758;79;21027;-50
2022/09/24 00:18:47;;;;;;;3.95;2.98;;;;;;;11.63;74.11;150576.61;1775628;80;21110;-50
2022/09/24 00:21:24;;;;;;;5.78;3.35;;;;;;;11.58;74.27;150563.58;1772259;79;21467;-50
2022/09/24 00:23:55;;;;;;;5.33;3.60;;;;;;;11.53;74.55;150550.61;1776705;80;22679;-50
2022/09/24 00:29:09;;;;;;;4.33;3.17;;;;;;;11.46;74.97;150533.72;1777944;80;21428;-50
2022/09/24 00:31:35;;;;;;;5.97;3.40;;;;;;;11.48;75.25;150537.63;1768848;79;21105;-48
2022/09/24 00:34:02;;;;;;;5.12;2.95;;;;;;;11.45;75.26;150532.44;1772365;80;21035;-50
2022/09/24 00:36:29;;;;;;;7.55;3.58;;;;;;;11.40;75.31;150519.47;1778241;79;21211;-50
2022/09/24 00:38:58;;;;;;;4.75;3.17;;;;;;;11.36;75.45;150509.05;1778080;80;21028;-50
2022/09/24 00:41:30;;;;;;;4.53;3.25;;;;;;;11.31;75.82;150496.06;1778381;79;20947;-50
2022/09/24 00:43:56;;;;;;;8.10;3.30;;;;;;;11.30;75.93;150493.47;1772003;79;21056;-49
2022/09/24 00:46:37;;;;;;;7.05;3.35;;;;;;;11.27;76.09;150485.69;1778099;80;21090;-49
2022/09/24 00:49:14;;;;;;;4.17;3.12;;;;;;;11.22;76.09;150472.72;1778107;80;21188;-50
2022/09/24 00:51:44;;;;;;;5.67;3.40;;;;;;;11.14;76.47;150453.23;1777600;80;21054;-50
2022/09/24 00:54:15;;;;;;;5.87;3.30;;;;;;;11.08;76.74;150438.94;1778107;80;21061;-49
2022/09/24 00:56:44;;;;;;;4.03;2.85;;;;;;;11.04;76.98;150428.58;1778309;80;20915;-49
2022/09/24 00:59:15;;;;;;;6.78;3.55;;;;;;;11.04;77.51;150428.58;1778798;80;21442;-50
2022/09/24 01:01:40;;;;;;;5.45;3.67;;;;;;;11.10;77.46;150442.86;1772494;79;21190;-50
2022/09/24 01:04:07;;;;;;;6.53;3.52;;;;;;;11.11;77.43;150446.73;1778312;80;20999;-50
2022/09/24 01:06:34;;;;;;;5.45;3.70;;;;;;;11.09;77.31;150440.28;1777163;80;21034;-49
2022/09/24 01:09:01;;;;;;;8.10;4.05;;;;;;;11.03;77.46;150427.25;1778012;79;21097;-48
2022/09/24 01:12:04;;;;;;;6.33;3.52;;;;;;;11.00;77.72;150418.20;1778809;79;21018;-49
2022/09/24 01:14:40;;;;;;;6.17;3.87;;;;;;;10.96;77.88;150407.81;1778831;80;21119;-49
2022/09/24 01:17:21;;;;;;;5.87;3.42;;;;;;;10.85;78.15;150380.56;1777814;80;20998;-49
2022/09/24 01:20:12;;;;;;;8.70;4.25;;;;;;;10.78;78.52;150363.69;1780004;80;21070;-50
2022/09/24 01:23:02;;;;;;;5.55;3.55;;;;;;;10.77;78.94;150361.09;1773902;79;21308;-49
2022/09/24 01:26:01;;;;;;;7.12;3.92;;;;;;;10.76;78.96;150358.50;1777491;80;21465;-48
2022/09/24 01:29:04;;;;;;;7.40;4.22;;;;;;;10.68;79.14;150339.02;1767777;80;21950;-49
2022/09/24 01:31:32;;;;;;;7.10;4.15;;;;;;;10.64;79.73;150327.33;1781196;79;21026;-49
2022/09/24 01:34:04;;;;;;;6.55;3.98;;;;;;;10.68;80.20;150339.02;1775796;79;21033;-50
2022/09/24 01:36:33;;;;;;;6.55;3.70;;;;;;;10.81;80.00;150371.47;1777541;80;20919;-49
2022/09/24 01:39:00;;;;;;;5.35;3.80;;;;;;;10.81;79.68;150371.47;1778003;80;21042;-49
2022/09/24 01:41:27;;;;;;;5.50;3.80;;;;;;;10.78;79.61;150363.69;1778661;80;21270;-49
2022/09/24 01:43:54;;;;;;;5.80;3.85;;;;;;;10.69;79.58;150340.30;1778753;79;21527;-50
2022/09/24 01:46:21;;;;;;;9.38;3.72;;;;;;;10.63;79.84;150324.73;1772618;80;21100;-50
2022/09/24 01:48:49;;;;;;;7.62;4.03;;;;;;;10.58;80.32;150314.36;1776976;80;21047;-50
2022/09/24 01:51:30;;;;;;;5.90;3.92;;;;;;;10.56;80.48;150309.17;1781456;80;21102;-50
2022/09/24 01:54:02;;;;;;;5.83;3.72;;;;;;;10.55;80.81;150306.58;1775981;80;21937;-51
2022/09/24 01:56:49;;;;;;;5.70;4.22;;;;;;;10.55;81.03;150306.58;1773760;80;21085;-50
2022/09/24 01:59:39;;;;;;;5.50;3.65;;;;;;;10.57;81.24;150311.77;1773351;80;20987;-50
2022/09/24 02:02:17;;;;;;;7.25;3.72;;;;;;;10.64;80.98;150327.33;1774420;80;21050;-51
2022/09/24 02:04:48;;;;;;;7.50;4.10;;;;;;;10.59;80.94;150316.95;1770931;79;21210;-50
2022/09/24 02:07:35;;;;;;;5.10;3.65;;;;;;;10.56;81.17;150309.17;1773883;80;21136;-50
2022/09/24 02:10:02;;;;;;;7.60;4.25;;;;;;;10.53;81.23;150301.39;1776787;80;21034;-51
2022/09/24 02:12:40;;;;;;;6.03;4.20;;;;;;;10.52;81.51;150298.80;1772317;79;21707;-51
2022/09/24 02:15:11;;;;;;;5.58;4.12;;;;;;;10.50;81.35;150292.30;1779899;79;21138;-51
2022/09/24 02:17:40;;;;;;;11.50;3.92;;;;;;;10.46;81.43;150283.19;1778394;80;21081;-50
2022/09/24 02:20:13;;;;;;;7.30;4.33;;;;;;;10.39;81.49;150265.00;1773876;80;21115;-51
2022/09/24 02:22:40;;;;;;;6.95;4.28;;;;;;;10.33;81.61;150250.72;1779635;80;22270;-51
2022/09/24 02:25:09;;;;;;;5.60;3.75;;;;;;;10.27;81.78;150236.44;1774695;80;21049;-51
2022/09/24 02:27:36;;;;;;;7.15;3.92;;;;;;;10.22;82.02;150223.47;1782557;80;20995;-50
2022/09/24 02:30:05;;;;;;;5.25;3.70;;;;;;;10.17;82.13;150210.50;1773852;80;21042;-51
2022/09/24 02:32:33;;;;;;;9.30;3.75;;;;;;;10.11;82.32;150194.95;1775502;80;21443;-52
2022/09/24 02:35:04;;;;;;;6.72;3.60;;;;;;;10.06;82.56;150181.94;1781910;80;21031;-50
2022/09/24 02:37:40;;;;;;;5.05;3.77;;;;;;;10.01;82.79;150171.58;1774955;80;21328;-50
2022/09/24 02:40:10;;;;;;;5.55;3.80;;;;;;;9.99;82.99;150166.39;1773419;80;21453;-51
2022/09/24 02:42:39;;;;;;;6.62;3.67;;;;;;;9.96;83.18;150158.61;1780816;80;21070;-50
2022/09/24 02:45:07;;;;;;;7.92;3.75;;;;;;;9.95;83.29;150156.03;1777392;79;21212;-50
2022/09/24 02:47:34;;;;;;;6.08;3.47;;;;;;;9.93;83.47;150150.84;1775493;80;21062;-50
2022/09/24 02:50:01;;;;;;;6.20;3.52;;;;;;;9.92;83.66;150148.25;1777552;80;21019;-50
2022/09/24 02:52:28;;;;;;;10.35;3.42;;;;;;;9.93;83.79;150150.84;1783231;80;21031;-50
2022/09/24 02:54:55;;;;;;;3.77;2.90;;;;;;;9.93;83.89;150150.84;1770551;79;21047;-51
2022/09/24 02:57:22;;;;;;;5.42;3.50;;;;;;;9.91;83.93;150145.66;1776957;80;22069;-51
2022/09/24 02:59:49;;;;;;;4.42;3.10;;;;;;;9.94;84.21;150153.44;1771242;80;21036;-51
2022/09/24 03:02:16;;;;;;;6.50;3.33;;;;;;;9.98;84.21;150163.80;1783478;79;21035;-51
2022/09/24 03:04:43;;;;;;;5.12;3.45;;;;;;;10.02;84.14;150172.89;1776185;80;21080;-51
2022/09/24 03:07:13;;;;;;;4.67;3.27;;;;;;;10.03;84.20;150176.75;1778866;79;20976;-50
2022/09/24 03:09:39;;;;;;;4.62;2.98;;;;;;;10.09;84.25;150189.77;1776340;80;21127;-50
2022/09/24 03:12:07;;;;;;;9.88;3.62;;;;;;;10.11;84.16;150194.95;1775870;80;21035;-49
2022/09/24 03:14:33;;;;;;;7.12;2.92;;;;;;;10.14;84.21;150202.73;1778397;79;21038;-50
2022/09/24 03:17:00;;;;;;;4.25;3.17;;;;;;;10.21;84.37;150220.88;1778488;79;21102;-50
2022/09/24 03:19:27;;;;;;;4.30;2.85;;;;;;;10.26;84.11;150233.84;1774910;79;21588;-49
2022/09/24 03:21:54;;;;;;;4.12;3.05;;;;;;;10.28;83.97;150239.08;1794095;78;21455;-50
2022/09/24 03:24:22;;;;;;;4.35;2.90;;;;;;;10.30;83.83;150244.25;1799449;79;21054;-51
2022/09/24 03:26:49;;;;;;;6.08;3.20;;;;;;;10.31;83.83;150245.53;1795145;78;21060;-51
2022/09/24 03:30:58;;;;;;;5.12;3.30;;;;;;;10.31;83.93;150245.53;1788115;79;21505;-51
2022/09/24 03:31:44;;;;;;;6.30;3.30;;;;;;;10.39;84.11;150265.00;1788898;79;21085;-52
2022/09/24 03:34:11;;;;;;;5.47;3.05;;;;;;;10.43;83.91;150276.73;1801309;79;21087;-50
2022/09/24 03:36:39;;;;;;;6.30;3.22;;;;;;;10.48;83.73;150288.38;1790522;79;21085;-51
2022/09/24 03:39:05;;;;;;;4.58;2.98;;;;;;;10.48;83.72;150288.38;1789360;79;21085;-51
2022/09/24 03:41:32;;;;;;;5.08;3.00;;;;;;;10.51;83.56;150296.20;1796095;78;21034;-51
2022/09/24 03:44:00;;;;;;;5.37;3.27;;;;;;;10.51;83.66;150296.20;1782092;79;21023;-51
2022/09/24 03:46:27;;;;;;;4.45;3.02;;;;;;;10.55;83.58;150306.58;1797438;79;21902;-51
2022/09/24 03:48:53;;;;;;;7.42;2.90;;;;;;;10.56;83.52;150309.17;1794218;79;21022;-50
2022/09/24 03:51:21;;;;;;;4.65;2.85;;;;;;;10.55;83.33;150305.25;1793236;79;21030;-50
2022/09/24 03:53:48;;;;;;;5.85;2.90;;;;;;;10.50;83.32;150293.61;1793124;79;21038;-50
2022/09/24 03:56:15;;;;;;;5.92;3.42;;;;;;;10.52;83.58;150298.80;1794711;79;21522;-49
2022/09/24 03:58:46;;;;;;;4.03;2.72;;;;;;;10.54;83.44;150303.98;1789411;79;21025;-49
2022/09/24 04:01:12;;;;;;;4.62;3.20;;;;;;;10.53;83.51;150301.39;1777348;79;21069;-50
2022/09/24 04:03:39;;;;;;;4.78;3.00;;;;;;;10.56;83.52;150309.17;1793724;79;21061;-51
2022/09/24 04:06:07;;;;;;;5.15;3.55;;;;;;;10.59;83.47;150316.95;1796177;78;21387;-50
2022/09/24 04:08:34;;;;;;;6.35;3.52;;;;;;;10.60;83.26;150319.55;1795358;79;21034;-50
2022/09/24 04:11:02;;;;;;;4.35;2.80;;;;;;;10.59;83.27;150316.95;1790587;79;21915;-50
2022/09/24 04:13:29;;;;;;;4.97;3.40;;;;;;;10.59;83.27;150316.95;1785372;79;21140;-50
2022/09/24 04:15:59;;;;;;;5.42;3.05;;;;;;;10.65;83.38;150329.92;1784973;79;21029;-52
2022/09/24 04:18:25;;;;;;;3.72;2.87;;;;;;;10.66;83.25;150333.83;1738906;79;21132;-52
2022/09/24 04:20:58;;;;;;;6.90;3.17;;;;;;;10.69;83.08;150340.30;1785018;79;21050;-48
2022/09/24 04:23:26;;;;;;;5.55;3.20;;;;;;;10.68;82.92;150339.02;1776866;79;21111;-52
2022/09/24 04:25:53;;;;;;;5.35;3.15;;;;;;;10.66;82.88;150332.52;1783222;80;21039;-50
2022/09/24 04:28:19;;;;;;;4.90;3.17;;;;;;;10.63;82.97;150324.73;1775366;80;21060;-53
2022/09/24 04:30:46;;;;;;;4.40;3.22;;;;;;;10.60;83.05;150318.22;1781555;79;21042;-52
2022/09/24 04:33:14;;;;;;;9.93;3.70;;;;;;;10.58;83.11;150314.36;1774582;80;21557;-51
2022/09/24 04:35:41;;;;;;;7.67;3.33;;;;;;;10.55;83.27;150306.58;1770015;80;21225;-51
2022/09/24 04:38:09;;;;;;;7.80;3.42;;;;;;;10.54;83.58;150303.98;1775306;80;21035;-49
2022/09/24 04:40:38;;;;;;;8.13;3.25;;;;;;;10.56;83.62;150309.17;1776650;80;21015;-50
2022/09/24 04:43:06;;;;;;;6.70;3.85;;;;;;;10.56;83.62;150309.17;1778862;80;21011;-50
2022/09/24 04:45:34;;;;;;;7.37;3.77;;;;;;;10.56;83.69;150309.17;1779445;79;21484;-49
2022/09/24 04:48:01;;;;;;;6.40;3.00;;;;;;;10.57;83.73;150311.77;1770095;80;21117;-50
2022/09/24 04:50:32;;;;;;;5.70;3.50;;;;;;;10.58;83.69;150313.03;1772128;80;21085;-51
2022/09/24 04:52:57;;;;;;;8.50;3.35;;;;;;;10.60;83.83;150318.22;1757809;79;21051;-51
2022/09/24 04:55:24;;;;;;;4.78;3.05;;;;;;;10.64;83.87;150327.33;1778790;79;21511;-51
2022/09/24 04:57:51;;;;;;;9.98;3.20;;;;;;;10.71;83.73;150345.48;1776351;79;21028;-50
2022/09/24 05:00:19;;;;;;;6.25;3.02;;;;;;;10.77;83.69;150361.09;1783814;79;21954;-51
2022/09/24 05:02:46;;;;;;;4.40;2.87;;;;;;;10.89;83.62;150392.22;1774556;80;21019;-51
2022/09/24 05:05:14;;;;;;;7.05;3.35;;;;;;;11.04;83.22;150428.58;1776364;80;21096;-50
2022/09/24 05:07:41;;;;;;;5.83;3.20;;;;;;;11.13;82.65;150450.64;1775782;80;21180;-51
2022/09/24 05:10:08;;;;;;;5.40;3.37;;;;;;;11.26;82.35;150484.37;1775513;80;21038;-51
2022/09/24 05:12:35;;;;;;;12.47;3.52;;;;;;;11.43;82.06;150525.94;1774327;80;21140;-51
2022/09/24 05:15:04;;;;;;;9.78;3.42;;;;;;;11.65;81.50;150581.80;1777182;80;21076;-52
2022/09/24 05:17:32;;;;;;;11.65;3.12;;;;;;;11.82;80.72;150624.64;1775577;80;20978;-53
2022/09/24 05:20:00;;;;;;;9.50;3.65;;;;;;;12.02;80.20;150675.33;1781533;79;20963;-51
2022/09/24 05:22:27;;;;;;;8.75;2.95;;;;;;;12.25;79.30;150732.50;1795368;79;20986;-53
2022/09/24 05:24:54;;;;;;;7.00;3.33;;;;;;;12.48;78.41;150788.39;1791669;79;22061;-52
2022/09/24 05:27:22;;;;;;;6.28;2.95;;;;;;;12.69;77.57;150842.97;1778249;79;21325;-51
2022/09/24 05:29:50;;;;;;;5.40;3.15;;;;;;;12.95;76.76;150906.67;1784279;78;21061;-49
2022/09/24 05:32:19;;;;;;;6.20;3.12;;;;;;;13.32;75.79;151000.25;1778698;79;21008;-49
2022/09/24 05:34:46;;;;;;;5.50;2.72;;;;;;;13.83;74.26;151127.77;1790275;79;21084;-49
2022/09/24 05:37:14;;;;;;;7.75;2.98;;;;;;;14.19;72.08;151218.81;1783559;79;21479;-50
2022/09/24 05:39:40;;;;;;;4.90;2.62;;;;;;;14.38;70.25;151265.66;1787224;79;21072;-50
2022/09/24 05:42:14;;;;;;;7.83;3.08;;;;;;;14.42;69.43;151276.05;1783520;79;21570;-67
2022/09/24 05:44:42;;;;;;;4.58;3.20;;;;;;;14.43;67.20;151278.66;1783303;79;20979;-66
2022/09/24 05:47:09;;;;;;;6.90;3.50;;;;;;;14.11;66.97;151198.00;1788012;79;21030;-66
2022/09/24 05:49:37;;;;;;;6.33;3.27;;;;;;;13.87;67.75;151138.17;1787563;79;21124;-64
2022/09/24 05:52:05;;;;;;;7.42;3.20;;;;;;;13.87;68.59;151139.44;1792480;79;21564;-64
2022/09/24 05:54:33;;;;;;;6.65;2.90;;;;;;;13.85;68.02;151134.25;1780144;79;21629;-65
2022/09/24 05:57:00;;;;;;;6.97;2.98;;;;;;;13.84;68.31;151130.38;1789039;79;21840;-65
2022/09/24 05:59:26;;;;;;;4.92;2.85;;;;;;;13.86;67.95;151136.84;1789991;78;21112;-66
2022/09/24 06:01:54;;;;;;;6.28;3.00;;;;;;;13.90;68.50;151145.97;1790627;79;21809;-67
2022/09/24 06:04:21;;;;;;;6.92;3.08;;;;;;;14.00;67.77;151171.97;1743905;81;21112;-66
2022/09/24 06:06:51;;;;;;;3.83;2.90;;;;;;;13.99;67.36;151168.09;1732596;82;21068;-66
2022/09/24 06:09:17;;;;;;;7.80;2.87;;;;;;;13.99;67.18;151168.09;1731392;82;21480;-66
2022/09/24 06:11:45;;;;;;;5.53;2.50;;;;;;;13.93;66.86;151153.77;1734013;82;21040;-66
2022/09/24 06:14:13;;;;;;;8.70;3.12;;;;;;;13.97;67.53;151164.16;1732233;82;21199;-65
2022/09/24 06:16:41;;;;;;;7.85;2.90;;;;;;;14.09;66.90;151192.81;1729682;82;21036;-65
2022/09/24 06:19:08;;;;;;;3.67;2.65;;;;;;;14.20;66.83;151221.41;1731954;82;21021;-65
2022/09/24 06:21:35;;;;;;;7.37;3.12;;;;;;;14.19;65.67;151218.81;1736392;81;21024;-66
2022/09/24 06:24:03;;;;;;;4.60;2.67;;;;;;;14.07;65.94;151187.61;1736793;81;21048;-65
2022/09/24 06:26:30;;;;;;;7.47;3.00;;;;;;;14.05;65.76;151183.69;1739292;81;22167;-65
2022/09/24 06:28:56;;;;;;;5.28;2.92;;;;;;;14.05;66.13;151183.69;1736146;81;21108;-65
2022/09/24 06:31:23;;;;;;;8.20;2.90;;;;;;;14.12;65.82;151200.59;1739708;81;21071;-66
2022/09/24 06:33:50;;;;;;;3.27;2.60;;;;;;;14.15;65.35;151208.41;1737150;82;21028;-66
2022/09/24 06:36:17;;;;;;;2.95;2.35;;;;;;;14.14;65.34;151205.81;1740139;82;21475;-66
2022/09/24 06:38:44;;;;;;;4.75;2.00;;;;;;;14.12;65.21;151200.59;1740324;82;21372;-64
2022/09/24 06:41:11;;;;;;;4.10;2.77;;;;;;;14.16;65.31;151211.00;1740133;82;21597;-67
2022/09/24 06:43:38;;;;;;;6.03;2.70;;;;;;;14.26;65.27;151235.72;1740218;81;21048;-60
2022/09/24 06:46:05;;;;;;;5.62;2.58;;;;;;;14.25;64.72;151233.13;1734803;82;21418;-60
2022/09/24 06:48:33;;;;;;;4.47;2.65;;;;;;;14.22;64.98;151226.59;1737895;82;21015;-61
2022/09/24 06:50:59;;;;;;;5.65;2.30;;;;;;;14.17;64.77;151214.92;1736278;81;21265;-59
2022/09/24 06:53:26;;;;;;;2.75;2.42;;;;;;;14.14;64.36;151205.81;1736079;82;21470;-60
2022/09/24 06:55:58;;;;;;;5.97;3.10;;;;;;;14.08;64.27;151191.48;1737537;82;21459;-61
2022/09/24 06:58:26;;;;;;;8.38;2.58;;;;;;;14.04;64.47;151181.08;1736206;81;20940;-60
2022/09/24 07:01:00;;;;;;;3.98;2.50;;;;;;;14.04;64.59;151181.08;1739537;81;21107;-59
2022/09/24 07:03:29;;;;;;;10.03;2.30;;;;;;;14.10;64.68;151195.41;1735809;82;21601;-61
2022/09/24 07:06:02;;;;;;;9.10;2.55;;;;;;;14.20;64.82;151220.13;1736190;82;21019;-61
2022/09/24 07:08:30;;;;;;;7.90;2.02;;;;;;;14.27;64.10;151239.66;1737554;81;21063;-59
2022/09/24 07:10:57;;;;;;;7.20;2.70;;;;;;;14.35;64.17;151257.84;1736529;81;21040;-62
2022/09/24 07:13:25;;;;;;;9.93;2.60;;;;;;;14.46;63.79;151286.45;1734376;82;21031;-66
2022/09/24 07:15:52;;;;;;;5.80;2.40;;;;;;;14.56;63.77;151312.50;1737968;81;21269;-66
2022/09/24 07:18:20;;;;;;;3.72;2.30;;;;;;;14.70;63.28;151347.62;1738784;82;20993;-66
2022/09/24 07:20:55;;;;;;;4.87;2.67;;;;;;;14.83;63.07;151380.22;1734007;81;21128;-65
2022/09/24 07:23:22;;;;;;;4.70;2.60;;;;;;;14.95;62.56;151408.88;1725745;83;20994;-66
2022/09/24 07:25:50;;;;;;;4.40;2.20;;;;;;;15.03;62.23;151429.69;1726193;83;22463;-66
2022/09/24 07:28:17;;;;;;;5.03;2.22;;;;;;;15.14;61.39;151458.34;1723857;82;21231;-65
2022/09/24 07:30:45;;;;;;;4.67;2.17;;;;;;;15.15;60.24;151460.95;1725636;83;21017;-65
2022/09/24 07:33:12;;;;;;;3.00;2.05;;;;;;;15.15;59.94;151460.95;1722966;83;21546;-66
2022/09/24 07:35:39;;;;;;;5.78;1.87;;;;;;;15.20;58.75;151471.36;1722782;83;21068;-66
2022/09/24 07:38:10;;;;;;;4.33;1.77;;;;;;;15.21;57.86;151473.97;1726002;83;21024;-66
2022/09/24 07:40:37;;;;;;;5.45;1.90;;;;;;;15.24;57.94;151481.77;1723454;83;21475;-66
2022/09/24 07:43:10;;;;;;;7.72;1.87;;;;;;;15.32;57.86;151503.91;1722416;82;21339;-66
2022/09/24 07:45:33;;;;;;;3.08;2.22;;;;;;;15.41;57.64;151526.05;1724112;83;21208;-65
2022/09/24 07:48:02;;;;;;;6.45;1.90;;;;;;;15.52;57.01;151552.06;1725200;82;21097;-66
2022/09/24 07:50:32;;;;;;;4.58;2.00;;;;;;;15.52;56.84;151552.06;1726301;82;21510;-66
2022/09/24 07:52:59;;;;;;;6.22;1.95;;;;;;;15.53;56.30;151554.66;1724855;83;21538;-66
2022/09/24 07:55:26;;;;;;;13.03;2.10;;;;;;;15.51;56.52;151549.47;1725385;81;21020;-65
2022/09/24 07:57:54;;;;;;;6.00;1.98;;;;;;;15.55;57.18;151561.20;1725580;82;21455;-65
2022/09/24 08:00:22;;;;;;;5.85;2.10;;;;;;;15.70;57.15;151598.95;1724712;82;21491;-65
2022/09/24 08:02:50;;;;;;;2.90;2.20;;;;;;;15.81;56.41;151626.31;1725391;83;21073;-65
2022/09/24 08:05:18;;;;;;;2.42;2.05;;;;;;;15.81;56.65;151626.31;1721388;82;21872;-66
2022/09/24 08:07:54;;;;;;;4.42;2.37;;;;;;;15.88;56.96;151643.25;1724574;83;21005;-66
2022/09/24 08:10:23;;;;;;;10.45;2.22;;;;;;;16.02;56.87;151679.73;1723693;83;21040;-66
2022/09/24 08:12:50;;;;;;;7.75;2.35;;;;;;;16.19;56.67;151721.44;1723634;83;21033;-66
2022/09/24 08:15:18;;;;;;;5.42;2.10;;;;;;;16.35;56.15;151760.53;1725579;82;21104;-66
2022/09/24 08:17:45;;;;;;;4.35;1.87;;;;;;;16.48;55.62;151794.44;1724963;82;21213;-66
2022/09/24 08:20:12;;;;;;;2.60;1.77;;;;;;;16.59;55.16;151821.80;1725412;83;21012;-66
2022/09/24 08:22:39;;;;;;;4.65;2.02;;;;;;;16.70;54.77;151849.17;1725366;81;21029;-66
2022/09/24 08:25:07;;;;;;;3.20;2.42;;;;;;;16.76;54.26;151864.78;1723316;82;21578;-65
2022/09/24 08:27:35;;;;;;;3.83;2.12;;;;;;;16.78;53.37;151868.67;1725397;81;21064;-65
2022/09/24 08:30:04;;;;;;;5.10;2.08;;;;;;;16.63;53.28;151830.89;1724017;82;21147;-65
2022/09/24 08:32:31;;;;;;;3.98;2.00;;;;;;;16.50;53.73;151799.64;1725669;82;21502;-66
2022/09/24 08:34:58;;;;;;;2.58;1.60;;;;;;;16.48;53.85;151794.44;1724664;82;21096;-65
2022/09/24 08:37:27;;;;;;;4.30;2.30;;;;;;;16.39;53.21;151770.95;1725777;82;20958;-65
2022/09/24 08:39:55;;;;;;;4.42;1.90;;;;;;;16.20;53.74;151722.77;1723673;83;21072;-65
2022/09/24 08:42:41;;;;;;;2.10;1.80;;;;;;;16.08;53.97;151694.08;1724711;83;22506;-66
2022/09/24 08:48:00;;;;;;;;;;;;;;;15.89;55.18;151645.91;1730156;81;21480;-66
2022/09/24 08:50:30;;;;;;;3.95;2.27;;;;;;;15.92;54.29;151653.70;1722275;83;20178;-65
2022/09/24 08:53:14;;;;;;;2.98;2.00;;;;;;;15.90;54.48;151648.50;1726630;81;21216;-67
2022/09/24 08:55:45;;;;;;;5.80;1.90;;;;;;;15.93;55.00;151656.31;1725396;82;21486;-65
2022/09/24 08:58:41;;;;;;;8.05;2.12;;;;;;;16.09;55.47;151695.41;1724963;81;21250;-65
2022/09/24 09:01:16;;;;;;;4.70;1.80;;;;;;;16.26;54.83;151739.70;1724332;83;21164;-66
2022/09/24 09:04:05;;;;;;;3.77;1.65;;;;;;;16.41;53.65;151776.16;1723690;82;21026;-67
2022/09/24 09:06:40;;;;;;;8.88;2.05;;;;;;;16.53;52.27;151807.45;1721882;82;21036;-66
2022/09/24 09:09:13;;;;;;;;;;;;;;;16.59;51.89;151823.08;1724918;81;22087;-66
2022/09/24 09:11:46;;;;;;;5.10;1.80;;;;;;;16.58;51.47;151820.47;1722174;83;20131;-66
2022/09/24 09:14:33;;;;;;;2.77;2.20;;;;;;;16.68;51.32;151845.23;1725434;83;21487;-66
2022/09/24 09:17:05;;;;;;;2.35;1.77;;;;;;;16.82;51.06;151880.42;1726359;83;21068;-67
2022/09/24 09:19:33;;;;;;;7.37;1.92;;;;;;;16.86;50.59;151890.84;1723629;82;20997;-67
2022/09/24 09:22:14;;;;;;;5.55;1.70;;;;;;;16.84;50.81;151885.62;1729938;81;22184;-65
2022/09/24 09:24:48;;;;;;;3.70;1.75;;;;;;;16.85;50.88;151888.23;1731725;81;21086;-65
2022/09/24 09:27:16;;;;;;;5.08;1.82;;;;;;;16.88;49.89;151896.05;1754503;81;21068;-65
2022/09/24 09:29:50;;;;;;;9.75;2.40;;;;;;;16.70;48.25;151849.17;1736317;81;21058;-66
2022/09/24 09:32:41;;;;;;;5.78;1.72;;;;;;;16.45;48.44;151786.56;1733865;80;21277;-66
2022/09/24 09:35:46;;;;;;;3.45;1.32;;;;;;;16.24;48.42;151734.45;1735743;81;21554;-67
2022/09/24 09:38:51;;;;;;;5.45;1.60;;;;;;;16.03;48.36;151682.39;1696922;84;21030;-61
2022/09/24 09:41:36;;;;;;;2.90;1.70;;;;;;;15.94;47.80;151658.91;1719434;81;21030;-61
2022/09/24 09:44:23;;;;;;;4.72;1.70;;;;;;;15.83;47.76;151630.23;1723564;81;21084;-62
2022/09/24 09:47:07;;;;;;;9.08;1.65;;;;;;;15.73;48.38;151606.77;1715256;81;21442;-62
2022/09/24 09:49:35;;;;;;;5.22;1.42;;;;;;;15.73;48.00;151606.77;1737371;81;21139;-67
2022/09/24 09:52:05;;;;;;;1.92;1.35;;;;;;;15.84;47.80;151632.84;1727918;81;21100;-67
2022/09/24 09:54:36;;;;;;;4.12;1.40;;;;;;;15.95;46.99;151660.25;1739829;81;20989;-66
2022/09/24 09:57:05;;;;;;;2.87;1.80;;;;;;;16.06;47.15;151688.88;1717989;81;21077;-66
2022/09/24 09:59:33;;;;;;;8.93;1.60;;;;;;;16.14;47.21;151708.42;1733526;80;21125;-65
2022/09/24 10:02:00;;;;;;;5.53;1.20;;;;;;;16.23;47.25;151731.84;1731531;81;21220;-66
2022/09/24 10:04:39;;;;;;;4.83;1.20;;;;;;;16.44;45.70;151785.30;1722732;81;20978;-65
2022/09/24 10:07:16;;;;;;;1.50;1.40;;;;;;;16.68;44.90;151845.23;1723246;81;20981;-66
2022/09/24 10:09:45;;;;;;;4.12;1.50;;;;;;;16.92;44.42;151903.91;1723748;81;21983;-61
2022/09/24 10:12:21;;;;;;;4.78;1.70;;;;;;;17.08;45.09;151944.36;1717568;81;21081;-61
2022/09/24 10:15:05;;;;;;;2.77;1.70;;;;;;;17.16;45.42;151966.52;1718600;81;21009;-61
2022/09/24 10:17:38;;;;;;;2.50;1.47;;;;;;;17.21;45.25;151976.94;1746600;81;21052;-61
2022/09/24 10:20:14;;;;;;;3.75;2.08;;;;;;;17.29;45.20;151997.78;1732067;81;21092;-61
2022/09/24 10:22:52;;;;;;;12.85;1.90;;;;;;;17.25;46.01;151987.36;1714276;81;21086;-66
2022/09/24 10:25:25;;;;;;;2.77;1.82;;;;;;;17.08;45.83;151945.63;1720810;82;21573;-65
2022/09/24 10:30:34;;;;;;;3.20;1.70;;;;;;;16.50;46.55;151798.31;1651326;82;21338;-66
2022/09/24 10:33:03;;;;;;;5.15;1.45;;;;;;;16.36;46.05;151763.14;1714386;82;21010;-65
2022/09/24 10:35:37;;;;;;;3.17;1.45;;;;;;;16.31;45.63;151751.41;1726462;80;21101;-65
2022/09/24 10:38:17;;;;;;;2.83;1.30;;;;;;;16.31;43.64;151752.72;1719016;82;21034;-65
2022/09/24 10:40:44;;;;;;;2.80;1.65;;;;;;;16.35;44.43;151760.53;1717835;82;20986;-65
2022/09/24 10:43:19;;;;;;;5.78;1.55;;;;;;;16.44;45.04;151785.30;1716835;82;21037;-65
2022/09/24 10:45:52;;;;;;;17.30;1.75;;;;;;;16.57;45.04;151817.88;1726335;82;21016;-66
2022/09/24 10:48:36;;;;;;;14.45;2.10;;;;;;;16.71;44.78;151851.77;1727591;82;21051;-66
2022/09/24 10:51:35;;;;;;;6.35;2.27;;;;;;;16.83;44.86;151881.75;1681417;81;21452;-66
2022/09/24 10:54:08;;;;;;;4.78;1.70;;;;;;;16.94;44.85;151909.13;1715447;82;21473;-65
2022/09/24 10:56:42;;;;;;;5.12;1.80;;;;;;;16.97;43.77;151916.94;1713006;83;21051;-65
2022/09/24 10:59:46;;;;;;;4.30;1.90;;;;;;;16.89;43.06;151898.66;1717582;83;21054;-65
2022/09/24 11:02:38;;;;;;;8.78;2.65;;;;;;;16.79;43.64;151872.59;1728208;82;21090;-66
2022/09/24 11:05:18;;;;;;;11.30;4.15;;;;;;;16.78;43.06;151868.67;1708675;81;20951;-65
2022/09/24 11:08:19;;;;;;;10.65;4.70;;;;;;;16.79;43.49;151872.59;1720966;82;21682;-65
2022/09/24 11:11:01;;;;;;;9.13;4.20;;;;;;;16.83;43.80;151883.03;1721666;82;21446;-67
2022/09/24 11:13:54;;;;;;;11.28;3.80;;;;;;;16.89;43.68;151897.38;1723344;82;21017;-65
2022/09/24 11:16:37;;;;;;;7.15;3.47;;;;;;;17.00;42.78;151924.80;1714883;82;21200;-64
2022/09/24 11:19:24;;;;;;;6.60;4.10;;;;;;;17.09;42.28;151948.23;1730976;82;21129;-66
2022/09/24 11:22:02;;;;;;;12.53;5.97;;;;;;;17.27;41.92;151992.56;1643979;83;21876;-65
2022/09/24 11:24:59;;;;;;;9.75;4.80;;;;;;;17.49;41.74;152048.66;1781900;80;21061;-62
2022/09/24 11:28:11;;;;;;;8.88;3.60;;;;;;;17.63;41.40;152082.53;1778691;80;21039;-61
2022/09/24 11:30:56;;;;;;;9.50;2.55;;;;;;;17.71;40.25;152104.70;1721870;81;22219;-60
2022/09/24 11:34:11;;;;;;;5.85;2.15;;;;;;;17.79;39.66;152122.95;1713952;82;21157;-60
2022/09/24 11:37:12;;;;;;;9.13;2.00;;;;;;;17.95;39.47;152164.70;1764450;80;21905;-61
2022/09/24 11:39:54;;;;;;;7.50;1.60;;;;;;;18.10;38.79;152202.56;1779305;80;21010;-61
2022/09/24 11:42:32;;;;;;;6.70;1.70;;;;;;;18.24;38.76;152237.83;1775413;80;21038;-60
2022/09/24 11:45:05;;;;;;;;;;;;;;;18.35;38.71;152263.91;1780399;80;21048;-60
2022/09/24 11:48:13;;;;;;;2.22;1.55;;;;;;;18.42;38.93;152283.47;1785162;79;20445;-61
2022/09/24 11:51:19;;;;;;;5.97;1.45;;;;;;;18.48;38.69;152297.84;1775526;80;21023;-60
2022/09/24 11:53:54;;;;;;;4.42;1.50;;;;;;;18.48;38.89;152297.84;1775491;79;21018;-61
2022/09/24 11:56:36;;;;;;;13.75;1.72;;;;;;;18.39;39.20;152274.33;1779564;80;21022;-61
2022/09/24 11:59:45;;;;;;;6.05;1.85;;;;;;;18.27;39.60;152245.66;1779783;79;21035;-62